Time;durP1;ratioP1;P1;durP2;ratioP2;P2;SDS_P1;SDS_P2;PMS_P1;PMS_P2;Temp;Humidity;BMP_temperature;BMP_pressure;BME280_temperature;BME280_humidity;BME280_pressure;Samples;Min_cycle;Max_cycle;Signal;HPM_P1;HPM_P2
2021/08/20 00:01:25;;;;;;;18.25;13.65;;;16.00;99.90;;;;;;5008806;28;25060;-75
2021/08/20 00:03:51;;;;;;;18.90;12.15;;;16.10;99.90;;;;;;5005975;28;25077;-78
2021/08/20 00:06:16;;;;;;;22.48;13.93;;;16.20;99.90;;;;;;5008152;28;25072;-75
2021/08/20 00:08:42;;;;;;;20.40;12.95;;;16.10;99.90;;;;;;5010480;28;25071;-74
2021/08/20 00:11:07;;;;;;;19.15;12.98;;;16.20;99.90;;;;;;5009568;28;25097;-74
2021/08/20 00:13:33;;;;;;;22.20;13.88;;;16.20;99.90;;;;;;5008795;28;25107;-75
2021/08/20 00:15:59;;;;;;;20.15;14.02;;;16.20;99.90;;;;;;5009569;28;25083;-74
2021/08/20 00:18:25;;;;;;;19.80;15.05;;;16.20;99.90;;;;;;5007813;28;25063;-75
2021/08/20 00:20:51;;;;;;;24.80;14.57;;;16.10;99.90;;;;;;5009013;28;25063;-76
2021/08/20 00:23:17;;;;;;;21.02;13.90;;;16.10;99.90;;;;;;5009076;28;25091;-75
2021/08/20 00:25:43;;;;;;;26.67;15.57;;;16.10;99.90;;;;;;5008283;28;25104;-76
2021/08/20 00:28:09;;;;;;;22.90;15.57;;;16.10;99.90;;;;;;5010946;28;25062;-75
2021/08/20 00:30:35;;;;;;;21.15;15.52;;;16.00;99.90;;;;;;5011492;28;25074;-76
2021/08/20 00:33:00;;;;;;;25.70;15.75;;;16.10;99.90;;;;;;5009868;28;25081;-75
2021/08/20 00:35:26;;;;;;;25.17;16.08;;;16.10;99.90;;;;;;5011336;28;25069;-74
2021/08/20 00:37:51;;;;;;;26.92;17.35;;;16.10;99.90;;;;;;5011885;28;25060;-76
2021/08/20 00:40:17;;;;;;;22.85;16.35;;;16.00;99.90;;;;;;5005180;28;25212;-75
2021/08/20 00:42:44;;;;;;;26.15;18.92;;;16.10;99.90;;;;;;5008270;28;25084;-76
2021/08/20 00:45:10;;;;;;;27.10;17.02;;;16.10;99.90;;;;;;5012806;28;25071;-76
2021/08/20 00:47:35;;;;;;;22.55;16.77;;;16.10;99.90;;;;;;5008399;28;25062;-76
2021/08/20 00:50:03;;;;;;;27.88;18.55;;;16.10;99.90;;;;;;5009989;28;25119;-74
2021/08/20 00:52:30;;;;;;;28.42;18.70;;;16.10;99.90;;;;;;5008544;28;25095;-76
2021/08/20 00:54:56;;;;;;;27.35;17.73;;;16.10;99.90;;;;;;5011818;28;25098;-74
2021/08/20 00:57:21;;;;;;;28.17;18.73;;;16.10;99.90;;;;;;5012060;28;25080;-76
2021/08/20 00:59:48;;;;;;;26.58;18.25;;;16.10;99.90;;;;;;5012418;28;25054;-76
2021/08/20 01:02:14;;;;;;;26.27;18.33;;;16.10;99.90;;;;;;5011759;28;25097;-75
2021/08/20 01:04:40;;;;;;;25.75;18.05;;;16.10;99.90;;;;;;5011821;28;25061;-76
2021/08/20 01:07:06;;;;;;;24.73;18.88;;;16.10;99.90;;;;;;5012201;28;25061;-74
2021/08/20 01:09:32;;;;;;;25.20;17.52;;;16.10;99.90;;;;;;5011532;28;25073;-75
2021/08/20 01:11:58;;;;;;;22.10;16.90;;;16.20;99.90;;;;;;5011142;28;25126;-76
2021/08/20 01:14:29;;;;;;;22.42;16.48;;;16.20;99.90;;;;;;5009689;28;25090;-75
2021/08/20 01:16:55;;;;;;;20.80;16.00;;;16.30;99.90;;;;;;5003378;28;25153;-75
2021/08/20 01:19:21;;;;;;;19.83;16.33;;;16.30;99.90;;;;;;5011956;28;25103;-76
2021/08/20 01:21:46;;;;;;;22.65;15.90;;;16.20;99.90;;;;;;5020193;28;25076;-73
2021/08/20 01:24:12;;;;;;;21.50;17.25;;;16.10;99.90;;;;;;5022599;28;25082;-76
2021/08/20 01:26:38;;;;;;;23.80;17.02;;;16.10;99.90;;;;;;5020146;28;25060;-76
2021/08/20 01:29:03;;;;;;;27.90;17.55;;;16.20;99.90;;;;;;5018595;28;25105;-75
2021/08/20 01:31:29;;;;;;;26.33;17.75;;;16.20;99.90;;;;;;5018724;28;25080;-73
2021/08/20 01:33:55;;;;;;;27.42;18.25;;;16.20;99.90;;;;;;5020142;28;25066;-75
2021/08/20 01:36:21;;;;;;;27.73;18.67;;;16.20;99.90;;;;;;5020373;28;25078;-73
2021/08/20 01:38:55;;;;;;;29.23;18.90;;;16.20;99.90;;;;;;5020006;28;25072;-76
2021/08/20 01:41:23;;;;;;;26.98;19.10;;;16.10;99.90;;;;;;5019746;28;25123;-76
2021/08/20 01:43:49;;;;;;;25.27;18.67;;;16.10;99.90;;;;;;5018984;28;25063;-74
2021/08/20 01:46:15;;;;;;;25.75;18.25;;;16.10;99.90;;;;;;5023786;28;25075;-75
2021/08/20 01:48:52;;;;;;;28.63;19.25;;;16.10;99.90;;;;;;5016081;28;25053;-75
2021/08/20 01:51:19;;;;;;;27.08;18.60;;;16.20;99.90;;;;;;5022402;28;25085;-74
2021/08/20 01:53:46;;;;;;;30.42;19.63;;;16.20;99.90;;;;;;5018788;28;25149;-75
2021/08/20 01:56:25;;;;;;;26.98;19.38;;;16.20;99.90;;;;;;5021996;28;25074;-75
2021/08/20 01:58:53;;;;;;;33.67;19.20;;;16.10;99.90;;;;;;5022393;28;25054;-75
2021/08/20 02:01:19;;;;;;;26.40;18.23;;;16.10;99.90;;;;;;5022395;28;25071;-74
2021/08/20 02:03:45;;;;;;;32.85;20.23;;;16.10;99.90;;;;;;5021566;28;25046;-76
2021/08/20 02:06:11;;;;;;;27.75;19.38;;;16.10;99.90;;;;;;5008078;28;25129;-74
2021/08/20 02:08:37;;;;;;;29.75;19.90;;;16.20;99.90;;;;;;5021697;28;25103;-75
2021/08/20 02:11:03;;;;;;;30.42;20.10;;;16.20;99.90;;;;;;5022103;28;25077;-73
2021/08/20 02:13:29;;;;;;;27.35;19.27;;;16.20;99.90;;;;;;5020366;28;25064;-75
2021/08/20 02:15:55;;;;;;;34.95;20.13;;;16.30;99.90;;;;;;5022393;28;25099;-76
2021/08/20 02:18:21;;;;;;;31.75;21.40;;;16.30;99.90;;;;;;5012616;28;25086;-75
2021/08/20 02:20:46;;;;;;;32.60;20.95;;;16.30;99.90;;;;;;5020637;28;25106;-75
2021/08/20 02:23:12;;;;;;;37.17;22.63;;;16.30;99.90;;;;;;5023608;28;25063;-75
2021/08/20 02:25:38;;;;;;;40.08;22.88;;;16.20;99.90;;;;;;5023551;28;25094;-75
2021/08/20 02:28:04;;;;;;;35.58;22.25;;;16.20;99.90;;;;;;5023612;28;25072;-76
2021/08/20 02:30:30;;;;;;;37.30;22.95;;;16.20;99.90;;;;;;5021905;28;25050;-76
2021/08/20 02:32:56;;;;;;;34.60;22.33;;;16.20;99.90;;;;;;5023229;28;25123;-74
2021/08/20 02:35:23;;;;;;;39.08;22.75;;;16.30;99.90;;;;;;5017180;28;25076;-75
2021/08/20 02:37:49;;;;;;;41.03;23.30;;;16.30;99.90;;;;;;5021804;28;25095;-74
2021/08/20 02:40:15;;;;;;;40.83;24.30;;;16.40;99.90;;;;;;5020302;28;25065;-75
2021/08/20 02:42:40;;;;;;;38.10;25.42;;;16.40;99.90;;;;;;5020276;28;25065;-75
2021/08/20 02:45:06;;;;;;;44.92;26.00;;;16.40;99.90;;;;;;5020517;28;25094;-74
2021/08/20 02:47:32;;;;;;;38.20;24.00;;;16.50;99.90;;;;;;5020217;28;25154;-74
2021/08/20 02:49:58;;;;;;;40.35;23.38;;;16.60;99.90;;;;;;5019521;28;25054;-76
2021/08/20 02:52:23;;;;;;;40.05;24.15;;;16.50;99.90;;;;;;5021133;28;25064;-76
2021/08/20 02:54:49;;;;;;;36.30;23.23;;;16.50;99.90;;;;;;5021150;28;25075;-75
2021/08/20 02:57:14;;;;;;;39.05;23.75;;;16.60;99.90;;;;;;5020191;28;25061;-75
2021/08/20 02:59:40;;;;;;;38.63;23.77;;;16.60;99.90;;;;;;5019126;28;25090;-74
2021/08/20 03:02:06;;;;;;;41.65;25.10;;;16.70;99.90;;;;;;5019795;28;25091;-75
2021/08/20 03:04:31;;;;;;;40.10;23.45;;;16.60;99.90;;;;;;5019931;28;25106;-74
2021/08/20 03:06:57;;;;;;;45.58;24.50;;;16.60;99.90;;;;;;5018432;28;25090;-75
2021/08/20 03:09:25;;;;;;;44.45;25.02;;;16.60;99.90;;;;;;5015786;28;25066;-77
2021/08/20 03:11:50;;;;;;;46.42;25.30;;;16.50;99.90;;;;;;5010764;28;25108;-75
2021/08/20 03:14:17;;;;;;;42.20;23.85;;;16.50;99.90;;;;;;5004638;28;25086;-76
2021/08/20 03:16:43;;;;;;;53.15;25.65;;;16.50;99.90;;;;;;5011494;28;25107;-75
2021/08/20 03:19:09;;;;;;;50.38;26.63;;;16.60;99.90;;;;;;5012563;28;25151;-75
2021/08/20 03:21:35;;;;;;;43.33;24.77;;;16.70;99.90;;;;;;5012409;28;25061;-76
2021/08/20 03:24:01;;;;;;;44.10;24.67;;;16.60;99.90;;;;;;5011671;28;25077;-75
2021/08/20 03:26:27;;;;;;;48.80;25.15;;;16.70;99.90;;;;;;5014781;28;25067;-75
2021/08/20 03:28:53;;;;;;;42.53;24.65;;;16.70;99.90;;;;;;5012736;28;25138;-76
2021/08/20 03:31:20;;;;;;;40.75;24.20;;;16.70;99.90;;;;;;5012935;28;25101;-77
2021/08/20 03:33:47;;;;;;;43.42;25.25;;;16.70;99.90;;;;;;5011946;28;25090;-75
2021/08/20 03:36:13;;;;;;;46.40;24.83;;;16.80;99.90;;;;;;5010675;28;25095;-76
2021/08/20 03:38:39;;;;;;;47.92;24.58;;;16.90;99.90;;;;;;5008724;28;25058;-76
2021/08/20 03:41:04;;;;;;;42.67;23.55;;;16.90;99.90;;;;;;5010260;28;25052;-77
2021/08/20 03:43:30;;;;;;;44.83;24.10;;;17.00;99.90;;;;;;5011043;28;25085;-75
2021/08/20 03:45:56;;;;;;;38.38;22.88;;;17.00;99.90;;;;;;5010631;28;25058;-75
2021/08/20 03:48:21;;;;;;;36.60;22.58;;;17.10;99.90;;;;;;5013854;28;25053;-76
2021/08/20 03:50:47;;;;;;;43.65;23.80;;;17.00;99.90;;;;;;5015675;28;25078;-75
2021/08/20 03:53:12;;;;;;;45.85;24.05;;;17.00;99.90;;;;;;5000264;28;25071;-75
2021/08/20 03:55:39;;;;;;;36.17;22.40;;;17.10;99.90;;;;;;5017468;28;25064;-76
2021/08/20 03:58:06;;;;;;;44.80;22.85;;;17.00;99.90;;;;;;5018258;28;25232;-75
2021/08/20 04:00:31;;;;;;;45.25;24.63;;;16.90;99.90;;;;;;5017632;28;25142;-75
2021/08/20 04:02:57;;;;;;;39.22;21.17;;;16.90;99.90;;;;;;5027647;28;25060;-75
2021/08/20 04:05:23;;;;;;;37.08;21.60;;;16.90;99.90;;;;;;5033962;28;25064;-74
2021/08/20 04:07:57;;;;;;;43.78;23.33;;;16.90;99.90;;;;;;5034927;28;25072;-75
2021/08/20 04:10:23;;;;;;;43.80;23.05;;;16.90;99.90;;;;;;5034092;28;25085;-76
2021/08/20 04:12:50;;;;;;;43.78;23.65;;;16.90;99.90;;;;;;5030684;28;25070;-76
2021/08/20 04:15:16;;;;;;;40.85;21.85;;;16.90;99.90;;;;;;5022563;28;25058;-75
2021/08/20 04:17:41;;;;;;;45.05;22.55;;;16.90;99.90;;;;;;5019047;28;25080;-76
2021/08/20 04:20:07;;;;;;;45.60;22.25;;;16.90;99.90;;;;;;5019738;28;25071;-77
2021/08/20 04:22:33;;;;;;;45.85;22.58;;;16.90;99.90;;;;;;5022412;28;25085;-76
2021/08/20 04:24:59;;;;;;;47.65;22.20;;;16.90;99.90;;;;;;5025558;28;25056;-76
2021/08/20 04:27:24;;;;;;;46.85;22.98;;;16.90;99.90;;;;;;5026949;28;25079;-76
2021/08/20 04:29:50;;;;;;;45.70;22.42;;;16.90;99.90;;;;;;5025507;28;25081;-76
2021/08/20 04:32:16;;;;;;;42.47;22.40;;;16.90;99.90;;;;;;5008608;28;25078;-76
2021/08/20 04:34:44;;;;;;;41.58;22.73;;;17.00;99.90;;;;;;5026359;28;25147;-76
2021/08/20 04:37:10;;;;;;;33.25;19.77;;;17.00;99.90;;;;;;5027263;28;25051;-76
2021/08/20 04:39:35;;;;;;;36.35;20.40;;;17.00;99.90;;;;;;5027198;28;25057;-75
2021/08/20 04:42:01;;;;;;;38.42;20.73;;;17.00;99.90;;;;;;5025639;28;25072;-75
2021/08/20 04:44:26;;;;;;;42.28;21.00;;;17.00;99.90;;;;;;5019911;28;25067;-75
2021/08/20 04:46:52;;;;;;;36.63;20.63;;;16.90;99.90;;;;;;5023318;28;25067;-76
2021/08/20 04:49:17;;;;;;;30.95;18.73;;;17.00;99.90;;;;;;5023389;28;25070;-75
2021/08/20 04:51:43;;;;;;;32.15;19.20;;;17.00;99.90;;;;;;5026287;28;25072;-75
2021/08/20 04:54:09;;;;;;;39.63;20.67;;;17.10;99.90;;;;;;5024988;28;25060;-75
2021/08/20 04:56:34;;;;;;;40.80;19.25;;;17.10;99.90;;;;;;5024362;28;25095;-75
2021/08/20 04:59:02;;;;;;;39.65;20.13;;;17.10;99.90;;;;;;5018112;28;25123;-77
2021/08/20 05:01:28;;;;;;;38.55;20.10;;;17.10;99.90;;;;;;5018458;28;25133;-75
2021/08/20 05:03:54;;;;;;;35.50;19.88;;;17.10;99.90;;;;;;5020136;28;25114;-75
2021/08/20 05:06:19;;;;;;;33.30;18.85;;;17.20;99.90;;;;;;5021126;28;25098;-75
2021/08/20 05:08:45;;;;;;;32.08;17.95;;;17.20;99.90;;;;;;5019640;28;25133;-75
2021/08/20 05:11:10;;;;;;;34.55;19.10;;;17.30;99.90;;;;;;5016602;28;25109;-77
2021/08/20 05:13:36;;;;;;;34.88;19.20;;;17.30;99.90;;;;;;5015606;28;25066;-76
2021/08/20 05:16:02;;;;;;;32.35;18.40;;;17.40;99.90;;;;;;5015587;28;25142;-75
2021/08/20 05:18:27;;;;;;;32.47;18.40;;;17.30;99.90;;;;;;5018196;28;25079;-76
2021/08/20 05:20:53;;;;;;;28.52;16.85;;;17.40;99.90;;;;;;5019451;28;25111;-76
2021/08/20 05:23:20;;;;;;;32.05;17.48;;;17.40;99.90;;;;;;5019552;28;25059;-76
2021/08/20 05:25:46;;;;;;;31.58;17.10;;;17.30;99.90;;;;;;5015798;28;25078;-75
2021/08/20 05:28:12;;;;;;;32.03;17.17;;;17.30;99.90;;;;;;5012329;28;25076;-77
2021/08/20 05:30:38;;;;;;;33.85;17.25;;;17.30;99.90;;;;;;5014970;28;25061;-77
2021/08/20 05:33:04;;;;;;;25.65;15.68;;;17.20;99.90;;;;;;5013944;28;24907;-76
2021/08/20 05:35:29;;;;;;;26.48;15.55;;;17.20;99.90;;;;;;4998320;28;25127;-76
2021/08/20 05:37:55;;;;;;;26.50;15.25;;;17.30;99.90;;;;;;5014512;28;25063;-76
2021/08/20 05:40:21;;;;;;;29.05;16.70;;;17.30;99.90;;;;;;5014217;28;25079;-76
2021/08/20 05:42:47;;;;;;;25.13;14.75;;;17.30;99.90;;;;;;5014028;28;25050;-75
2021/08/20 05:45:12;;;;;;;26.33;15.35;;;17.40;99.90;;;;;;5013744;28;25092;-74
2021/08/20 05:47:39;;;;;;;26.90;16.60;;;17.50;99.90;;;;;;5013290;28;25142;-75
2021/08/20 05:50:06;;;;;;;30.92;16.73;;;17.40;99.90;;;;;;5012991;28;25065;-75
2021/08/20 05:52:34;;;;;;;31.10;16.70;;;17.50;99.90;;;;;;5008165;28;25060;-76
2021/08/20 05:55:00;;;;;;;27.85;16.05;;;17.50;99.90;;;;;;5011491;28;25056;-77
2021/08/20 05:57:26;;;;;;;25.92;16.25;;;17.40;99.90;;;;;;4995103;28;25064;-74
2021/08/20 05:59:52;;;;;;;29.13;16.35;;;17.60;99.90;;;;;;5014434;28;25090;-76
2021/08/20 06:02:18;;;;;;;29.60;18.25;;;17.70;99.90;;;;;;4996267;28;25082;-75
2021/08/20 06:04:44;;;;;;;29.80;17.27;;;17.70;99.90;;;;;;5007331;28;25147;-76
2021/08/20 06:07:12;;;;;;;31.23;17.70;;;17.70;99.90;;;;;;5014884;28;25054;-78
2021/08/20 06:09:37;;;;;;;28.00;17.15;;;17.70;99.90;;;;;;5018365;28;25048;-78
2021/08/20 06:12:03;;;;;;;25.20;16.98;;;17.70;99.90;;;;;;5017330;28;25121;-77
2021/08/20 06:14:31;;;;;;;23.63;16.95;;;17.60;99.90;;;;;;5015109;28;25130;-77
2021/08/20 06:16:56;;;;;;;24.17;16.52;;;17.60;99.90;;;;;;5012661;28;25085;-76
2021/08/20 06:19:24;;;;;;;21.30;15.98;;;17.70;99.90;;;;;;5015081;28;25061;-77
2021/08/20 06:21:49;;;;;;;25.48;15.80;;;17.70;99.90;;;;;;5011562;28;25074;-76
2021/08/20 06:24:15;;;;;;;27.65;16.48;;;17.70;99.90;;;;;;4998496;28;25053;-77
2021/08/20 06:26:40;;;;;;;26.17;15.80;;;17.70;99.90;;;;;;5015170;28;25068;-77
2021/08/20 06:29:06;;;;;;;24.95;16.45;;;17.70;99.90;;;;;;5007387;28;25071;-78
2021/08/20 06:31:33;;;;;;;24.77;18.10;;;17.70;99.90;;;;;;5020594;28;25078;-78
2021/08/20 06:33:58;;;;;;;26.35;16.67;;;17.70;99.90;;;;;;5021369;28;25055;-79
2021/08/20 06:36:25;;;;;;;26.42;17.38;;;17.60;99.90;;;;;;5023762;28;25147;-80
2021/08/20 06:38:50;;;;;;;21.85;16.05;;;17.50;99.90;;;;;;5034218;28;25072;-77
2021/08/20 06:41:16;;;;;;;27.20;18.13;;;17.60;99.90;;;;;;5031697;28;25071;-78
2021/08/20 06:43:43;;;;;;;30.02;17.35;;;17.70;99.90;;;;;;5031916;28;25070;-78
2021/08/20 06:46:09;;;;;;;23.45;16.30;;;17.70;99.90;;;;;;5028069;28;25086;-79
2021/08/20 06:48:35;;;;;;;22.90;16.92;;;17.70;99.90;;;;;;5028898;28;25061;-76
2021/08/20 06:51:01;;;;;;;25.05;17.85;;;17.80;99.90;;;;;;5034961;28;25081;-77
2021/08/20 06:53:28;;;;;;;28.35;18.73;;;17.80;99.90;;;;;;5032994;28;25053;-76
2021/08/20 06:55:53;;;;;;;29.33;18.58;;;17.80;99.90;;;;;;5033909;28;25067;-77
2021/08/20 06:58:19;;;;;;;28.23;18.50;;;17.80;99.90;;;;;;5016761;28;25083;-78
2021/08/20 07:00:44;;;;;;;25.98;18.77;;;17.90;99.90;;;;;;5033800;28;25079;-78
2021/08/20 07:03:11;;;;;;;29.45;19.05;;;18.00;99.90;;;;;;5030901;28;25106;-78
2021/08/20 07:05:37;;;;;;;27.02;18.75;;;17.90;99.90;;;;;;5030340;28;25081;-78
2021/08/20 07:08:06;;;;;;;23.73;16.85;;;18.00;99.90;;;;;;5026669;28;25078;-77
2021/08/20 07:10:31;;;;;;;26.75;18.92;;;18.10;99.90;;;;;;5022614;28;25084;-79
2021/08/20 07:12:57;;;;;;;24.35;17.77;;;18.10;99.90;;;;;;5006699;28;25067;-78
2021/08/20 07:15:22;;;;;;;27.67;18.10;;;18.10;99.90;;;;;;5021197;28;25085;-78
2021/08/20 07:17:48;;;;;;;26.27;16.13;;;18.10;99.90;;;;;;5025937;28;25058;-78
2021/08/20 07:20:13;;;;;;;24.02;16.33;;;18.20;99.90;;;;;;5021644;28;25069;-77
2021/08/20 07:22:39;;;;;;;23.70;16.77;;;18.40;99.90;;;;;;5016858;28;25087;-78
2021/08/20 07:25:06;;;;;;;24.88;17.50;;;18.50;99.90;;;;;;5016895;28;25076;-78
2021/08/20 07:27:32;;;;;;;23.17;17.77;;;18.50;99.90;;;;;;5016796;28;25072;-77
2021/08/20 07:29:58;;;;;;;20.33;16.65;;;18.50;99.90;;;;;;5015893;28;25100;-77
2021/08/20 07:32:23;;;;;;;22.17;17.20;;;18.50;99.90;;;;;;5013743;28;25069;-78
2021/08/20 07:34:49;;;;;;;24.60;16.48;;;18.60;99.90;;;;;;5015160;28;25178;-77
2021/08/20 07:37:14;;;;;;;23.15;18.17;;;18.70;99.90;;;;;;5017753;28;25213;-77
2021/08/20 07:39:40;;;;;;;25.80;16.92;;;18.80;99.90;;;;;;4997515;28;25121;-77
2021/08/20 07:42:06;;;;;;;23.58;16.15;;;19.00;99.90;;;;;;4986771;28;25081;-78
2021/08/20 07:44:32;;;;;;;22.23;16.95;;;19.00;99.90;;;;;;5013712;28;25066;-77
2021/08/20 07:46:59;;;;;;;22.80;16.92;;;19.00;99.90;;;;;;5002139;28;25091;-77
2021/08/20 07:49:24;;;;;;;21.48;16.08;;;18.90;99.90;;;;;;5016361;28;25054;-78
2021/08/20 07:51:50;;;;;;;22.08;16.77;;;18.90;99.90;;;;;;4996774;28;25056;-77
2021/08/20 07:54:16;;;;;;;23.02;16.90;;;18.90;99.90;;;;;;5011693;28;25061;-77
2021/08/20 07:56:42;;;;;;;24.85;16.60;;;18.90;99.90;;;;;;5014631;28;25070;-76
2021/08/20 07:59:13;;;;;;;19.00;16.13;;;19.00;99.90;;;;;;4997783;28;25084;-77
2021/08/20 08:01:39;;;;;;;18.70;15.63;;;18.80;99.90;;;;;;5015726;28;25052;-77
2021/08/20 08:04:04;;;;;;;20.10;14.77;;;18.80;99.90;;;;;;5017142;28;25067;-78
2021/08/20 08:06:30;;;;;;;22.10;15.05;;;18.90;99.90;;;;;;5001177;28;25048;-79
2021/08/20 08:08:56;;;;;;;16.40;13.73;;;19.00;99.90;;;;;;5018995;28;25091;-77
2021/08/20 08:11:22;;;;;;;16.70;13.05;;;19.10;99.90;;;;;;5021523;28;25125;-77
2021/08/20 08:13:47;;;;;;;16.08;13.57;;;19.20;99.90;;;;;;5019859;28;25089;-78
2021/08/20 08:16:13;;;;;;;18.02;12.52;;;19.30;99.90;;;;;;5027570;28;25086;-78
2021/08/20 08:18:39;;;;;;;20.75;12.80;;;19.30;99.90;;;;;;5019610;28;25059;-76
2021/08/20 08:21:04;;;;;;;13.40;11.82;;;19.50;99.90;;;;;;5018074;28;25143;-76
2021/08/20 08:23:31;;;;;;;16.55;11.57;;;19.50;99.90;;;;;;5016965;28;25068;-77
2021/08/20 08:25:57;;;;;;;14.88;11.05;;;19.60;99.90;;;;;;5019218;28;25105;-78
2021/08/20 08:28:23;;;;;;;14.52;11.35;;;19.60;99.90;;;;;;5001706;28;25103;-75
2021/08/20 08:30:50;;;;;;;13.80;10.65;;;19.50;99.90;;;;;;5014624;28;25096;-77
2021/08/20 08:33:18;;;;;;;16.88;11.10;;;19.40;99.90;;;;;;5013107;28;25069;-77
2021/08/20 08:35:44;;;;;;;21.88;10.27;;;19.60;99.90;;;;;;5013334;28;25056;-77
2021/08/20 08:38:15;;;;;;;16.88;10.80;;;19.90;99.90;;;;;;5005293;28;25068;-75
2021/08/20 08:40:45;;;;;;;14.68;9.73;;;20.40;99.90;;;;;;5001203;28;25073;-76
2021/08/20 08:43:12;;;;;;;15.95;10.30;;;20.60;99.90;;;;;;5011191;28;24973;-77
2021/08/20 08:45:38;;;;;;;13.38;9.80;;;20.80;99.90;;;;;;5011955;28;25073;-78
2021/08/20 08:48:07;;;;;;;10.40;7.93;;;21.00;99.90;;;;;;4993780;28;25076;-77
2021/08/20 08:50:33;;;;;;;14.55;8.52;;;21.10;99.90;;;;;;5010930;28;25073;-77
2021/08/20 08:52:59;;;;;;;11.45;7.20;;;21.10;99.90;;;;;;5001878;28;25085;-76
2021/08/20 08:55:25;;;;;;;10.48;5.95;;;21.20;99.90;;;;;;5010896;28;25056;-76
2021/08/20 08:57:51;;;;;;;13.25;6.95;;;20.80;99.90;;;;;;5010687;28;25059;-76
2021/08/20 09:00:38;;;;;;;8.93;6.57;;;20.80;99.90;;;;;;5012062;28;25125;-76
2021/08/20 09:03:06;;;;;;;10.18;6.70;;;20.60;99.90;;;;;;4993778;28;25133;-76
2021/08/20 09:05:46;;;;;;;10.82;6.95;;;20.40;99.90;;;;;;5023840;28;25078;-76
2021/08/20 09:08:12;;;;;;;9.23;6.25;;;20.30;99.90;;;;;;5007808;28;25137;-76
2021/08/20 09:10:53;;;;;;;9.88;6.40;;;20.60;99.90;;;;;;5024805;28;25064;-76
2021/08/20 09:13:19;;;;;;;10.07;6.50;;;20.80;99.90;;;;;;5026726;28;25062;-76
2021/08/20 09:15:46;;;;;;;10.75;5.70;;;21.00;99.90;;;;;;5027657;28;25078;-74
2021/08/20 09:18:21;;;;;;;10.65;5.85;;;21.10;99.90;;;;;;5020634;28;25056;-78
2021/08/20 09:20:47;;;;;;;8.35;5.43;;;21.00;99.90;;;;;;5021135;28;25103;-77
2021/08/20 09:23:21;;;;;;;10.00;6.28;;;20.90;99.90;;;;;;5029456;28;25073;-78
2021/08/20 09:25:47;;;;;;;6.72;4.85;;;20.90;99.90;;;;;;5017111;28;25058;-77
2021/08/20 09:28:15;;;;;;;12.32;8.30;;;21.00;99.90;;;;;;5017953;28;25058;-77
2021/08/20 09:30:43;;;;;;;11.63;8.10;;;21.10;99.90;;;;;;5017774;28;25092;-77
2021/08/20 09:33:11;;;;;;;12.52;8.75;;;21.00;99.90;;;;;;5018620;28;25068;-77
2021/08/20 09:35:40;;;;;;;18.00;8.32;;;20.80;99.90;;;;;;5001464;28;25153;-79
2021/08/20 09:38:08;;;;;;;13.30;7.97;;;20.60;99.90;;;;;;5016759;28;25118;-77
2021/08/20 09:40:33;;;;;;;11.77;7.63;;;20.40;99.90;;;;;;5009436;28;25050;-76
2021/08/20 09:43:11;;;;;;;14.55;8.30;;;20.30;99.90;;;;;;4994081;28;25074;-76
2021/08/20 09:45:38;;;;;;;13.02;7.40;;;20.40;99.90;;;;;;5005321;28;25072;-77
2021/08/20 09:48:05;;;;;;;11.60;8.70;;;20.70;99.90;;;;;;5018700;28;25084;-78
2021/08/20 09:50:42;;;;;;;9.27;7.45;;;20.90;99.90;;;;;;5017007;28;25079;-77
2021/08/20 09:53:15;;;;;;;14.13;9.88;;;21.00;99.90;;;;;;5011323;28;25096;-79
2021/08/20 09:55:42;;;;;;;15.40;9.52;;;20.80;99.90;;;;;;5015833;28;25055;-76
2021/08/20 09:58:10;;;;;;;10.70;8.93;;;20.80;99.90;;;;;;5016291;28;25061;-79
2021/08/20 10:00:36;;;;;;;19.50;8.40;;;20.70;99.90;;;;;;5011734;28;25082;-77
2021/08/20 10:03:06;;;;;;;11.23;8.02;;;20.80;99.90;;;;;;5014298;28;25060;-78
2021/08/20 10:05:33;;;;;;;8.80;7.35;;;20.90;99.90;;;;;;5013971;28;25059;-77
2021/08/20 10:08:00;;;;;;;11.68;7.13;;;21.20;99.90;;;;;;5013915;28;25051;-77
2021/08/20 10:10:29;;;;;;;14.32;7.63;;;21.30;99.90;;;;;;5013727;28;25067;-79
2021/08/20 10:12:56;;;;;;;11.48;7.68;;;21.30;99.90;;;;;;5009808;28;25122;-78
2021/08/20 10:15:23;;;;;;;10.52;7.47;;;21.30;99.90;;;;;;5014977;28;25064;-78
2021/08/20 10:17:49;;;;;;;10.32;7.97;;;21.20;99.90;;;;;;5009332;28;25068;-76
2021/08/20 10:20:16;;;;;;;9.90;7.10;;;21.10;99.90;;;;;;5014768;28;25065;-76
2021/08/20 10:22:44;;;;;;;12.60;8.65;;;21.30;99.90;;;;;;5012072;28;25129;-76
2021/08/20 10:25:09;;;;;;;9.63;7.38;;;21.30;99.90;;;;;;5023367;28;25062;-77
2021/08/20 10:27:37;;;;;;;8.00;6.72;;;21.30;99.90;;;;;;5018689;28;25135;-77
2021/08/20 10:30:06;;;;;;;6.25;5.20;;;21.30;99.90;;;;;;5017541;28;25115;-77
2021/08/20 10:32:31;;;;;;;6.68;5.70;;;21.30;99.90;;;;;;5026753;28;25147;-77
2021/08/20 10:34:57;;;;;;;15.07;7.05;;;21.30;99.90;;;;;;4986558;28;25102;-78
2021/08/20 10:37:22;;;;;;;8.75;7.03;;;21.10;99.90;;;;;;5016614;28;25072;-76
2021/08/20 10:39:53;;;;;;;8.50;7.20;;;21.10;99.90;;;;;;5015014;28;25075;-77
2021/08/20 10:42:42;;;;;;;7.72;6.90;;;21.20;99.90;;;;;;5017304;28;25148;-77
2021/08/20 10:45:10;;;;;;;10.55;6.82;;;21.20;99.90;;;;;;5027473;28;25091;-77
2021/08/20 10:47:36;;;;;;;8.40;7.22;;;21.30;99.90;;;;;;5019939;28;25066;-76
2021/08/20 10:50:21;;;;;;;10.45;7.40;;;21.30;99.90;;;;;;5032754;28;25096;-78
2021/08/20 10:52:49;;;;;;;8.82;7.22;;;21.50;99.90;;;;;;5033127;28;25074;-79
2021/08/20 10:55:32;;;;;;;8.45;7.10;;;21.40;99.90;;;;;;5035255;28;25085;-78
2021/08/20 10:58:09;;;;;;;9.82;6.57;;;21.40;99.90;;;;;;5035412;28;25079;-78
2021/08/20 11:00:38;;;;;;;10.82;6.78;;;21.60;99.90;;;;;;5035783;28;25083;-80
2021/08/20 11:03:39;;;;;;;10.27;6.47;;;21.70;99.90;;;;;;5036063;28;25051;-79
2021/08/20 11:06:04;;;;;;;12.35;6.40;;;21.70;99.90;;;;;;5040383;28;25087;-80
2021/08/20 11:08:30;;;;;;;6.65;4.90;;;22.00;99.90;;;;;;5037194;28;25084;-80
2021/08/20 11:10:58;;;;;;;9.27;5.15;;;22.10;99.90;;;;;;5032598;28;25053;-78
2021/08/20 11:13:26;;;;;;;9.35;5.40;;;22.20;99.90;;;;;;5033923;28;25069;-81
2021/08/20 11:15:53;;;;;;;10.43;5.00;;;22.20;99.90;;;;;;5032530;28;25050;-80
2021/08/20 11:18:41;;;;;;;5.57;4.30;;;22.00;99.90;;;;;;5036104;28;25081;-82
2021/08/20 11:21:08;;;;;;;7.18;5.25;;;22.20;99.90;;;;;;5032556;28;25069;-80
2021/08/20 11:23:34;;;;;;;8.82;6.20;;;22.30;99.90;;;;;;5018260;28;25080;-77
2021/08/20 11:26:03;;;;;;;18.27;7.53;;;22.40;99.90;;;;;;5030247;28;25047;-79
2021/08/20 11:28:32;;;;;;;8.43;6.10;;;22.40;99.90;;;;;;5028634;28;25079;-80
2021/08/20 11:31:03;;;;;;;9.05;6.63;;;22.30;99.90;;;;;;5025748;28;25093;-76
2021/08/20 11:33:31;;;;;;;8.53;5.93;;;22.20;99.90;;;;;;5021807;28;25054;-76
2021/08/20 11:36:02;;;;;;;9.02;6.45;;;22.40;99.90;;;;;;5022188;28;25057;-76
2021/08/20 11:38:39;;;;;;;11.75;7.72;;;22.50;99.90;;;;;;5019181;28;25081;-79
2021/08/20 11:41:22;;;;;;;9.93;7.47;;;22.80;99.90;;;;;;5023483;28;25094;-82
2021/08/20 11:43:53;;;;;;;13.13;9.63;;;23.10;99.90;;;;;;5021555;28;25060;-81
2021/08/20 11:46:20;;;;;;;12.50;8.70;;;23.40;99.90;;;;;;5002309;28;25158;-76
2021/08/20 11:48:56;;;;;;;10.38;9.27;;;23.30;99.90;;;;;;5018942;28;25076;-80
2021/08/20 11:51:37;;;;;;;15.90;9.23;;;23.40;99.90;;;;;;4995916;28;25089;-79
2021/08/20 11:54:16;;;;;;;11.10;6.60;;;23.40;99.90;;;;;;5006949;28;25059;-77
2021/08/20 11:56:53;;;;;;;13.55;7.05;;;23.40;99.90;;;;;;5026223;28;25115;-78
2021/08/20 11:59:21;;;;;;;10.75;6.75;;;23.60;99.90;;;;;;5027181;28;25071;-78
2021/08/20 12:01:55;;;;;;;10.55;6.93;;;23.80;99.90;;;;;;5000707;28;25051;-80
2021/08/20 12:04:25;;;;;;;11.07;7.65;;;24.00;99.90;;;;;;5002139;28;25069;-79
2021/08/20 12:06:52;;;;;;;11.95;8.43;;;24.20;99.90;;;;;;5001600;28;25088;-84
2021/08/20 12:09:23;;;;;;;11.60;6.78;;;24.20;99.90;;;;;;5008235;28;25108;-79
2021/08/20 12:11:59;;;;;;;14.73;7.23;;;24.20;99.90;;;;;;5006639;28;25054;-81
2021/08/20 12:14:28;;;;;;;12.20;9.50;;;24.10;99.90;;;;;;5002453;28;25081;-78
2021/08/20 12:16:59;;;;;;;11.10;7.55;;;24.00;99.90;;;;;;5020525;28;25055;-79
2021/08/20 12:19:42;;;;;;;19.17;8.50;;;23.90;99.90;;;;;;5003186;28;25060;-78
2021/08/20 12:22:11;;;;;;;10.80;7.75;;;23.80;99.90;;;;;;5003574;28;25100;-80
2021/08/20 12:24:48;;;;;;;15.57;8.55;;;23.70;99.90;;;;;;5020273;28;25047;-76
2021/08/20 12:27:21;;;;;;;12.75;8.77;;;23.50;99.90;;;;;;5004714;28;25060;-79
2021/08/20 12:30:00;;;;;;;9.68;6.45;;;23.40;99.90;;;;;;5005415;28;25052;-81
2021/08/20 12:32:30;;;;;;;13.45;7.95;;;23.70;99.90;;;;;;5020251;28;25097;-79